Time;durP1;ratioP1;P1;durP2;ratioP2;P2;SDS_P1;SDS_P2;PMS_P1;PMS_P2;Temp;Humidity;BMP_temperature;BMP_pressure;BME280_temperature;BME280_humidity;BME280_pressure;Samples;Min_cycle;Max_cycle;Signal;HPM_P1;HPM_P2
2022/05/24 00:02:04;;;;;;;17.67;16.00;;;;;;;;;;5091405;28;20760;-76
2022/05/24 00:04:31;;;;;;;18.10;16.30;;;;;;;;;;5091937;28;20858;-75
2022/05/24 00:06:57;;;;;;;18.90;14.87;;;;;;;;;;5092456;28;20407;-75
2022/05/24 00:09:23;;;;;;;19.70;15.37;;;;;;;;;;5094823;28;20408;-76
2022/05/24 00:11:49;;;;;;;16.83;15.13;;;;;;;;;;5096196;28;20501;-76
2022/05/24 00:14:15;;;;;;;16.47;14.83;;;;;;;;;;5094732;28;20416;-76
2022/05/24 00:16:41;;;;;;;17.10;15.23;;;;;;;;;;5096093;28;20415;-75
2022/05/24 00:19:07;;;;;;;16.60;14.90;;;;;;;;;;5095937;28;20483;-75
2022/05/24 00:21:33;;;;;;;21.20;14.37;;;;;;;;;;5096065;28;20426;-76
2022/05/24 00:23:59;;;;;;;16.30;14.70;;;;;;;;;;5095568;28;20558;-76
2022/05/24 00:26:30;;;;;;;17.57;13.30;;;;;;;;;;5095682;28;20422;-76
2022/05/24 00:28:55;;;;;;;15.77;12.60;;;;;;;;;;5095777;28;20402;-75
2022/05/24 00:31:22;;;;;;;17.73;14.10;;;;;;;;;;5094407;28;20474;-76
2022/05/24 00:33:48;;;;;;;13.70;12.27;;;;;;;;;;5095325;28;20433;-74
2022/05/24 00:36:14;;;;;;;13.43;12.07;;;;;;;;;;5094547;28;20665;-76
2022/05/24 00:38:40;;;;;;;13.90;12.40;;;;;;;;;;5095463;28;20909;-76
2022/05/24 00:41:22;;;;;;;13.17;11.70;;;;;;;;;;5095775;28;20390;-75
2022/05/24 00:44:00;;;;;;;12.70;11.47;;;;;;;;;;5093848;28;20505;-75
2022/05/24 00:46:28;;;;;;;12.37;10.90;;;;;;;;;;5095358;28;20388;-76
2022/05/24 00:49:01;;;;;;;11.00;9.90;;;;;;;;;;5095385;28;20959;-75
2022/05/24 00:51:59;;;;;;;12.00;10.37;;;;;;;;;;5093967;28;20929;-76
2022/05/24 00:54:25;;;;;;;10.93;9.83;;;;;;;;;;5050366;28;20504;-76
2022/05/24 00:56:55;;;;;;;10.93;9.83;;;;;;;;;;5094227;28;20434;-74
2022/05/24 00:59:21;;;;;;;13.57;11.30;;;;;;;;;;5095433;28;20396;-76
2022/05/24 01:01:47;;;;;;;16.03;10.23;;;;;;;;;;5095570;28;20464;-75
2022/05/24 01:04:14;;;;;;;11.50;9.47;;;;;;;;;;5094836;28;20513;-76
2022/05/24 01:06:40;;;;;;;10.70;9.53;;;;;;;;;;5093837;28;20757;-75
2022/05/24 01:09:11;;;;;;;10.00;9.10;;;;;;;;;;5094945;28;20406;-76
2022/05/24 01:11:39;;;;;;;12.90;9.43;;;;;;;;;;5093724;28;20468;-76
2022/05/24 01:14:07;;;;;;;9.50;8.60;;;;;;;;;;5094800;28;20458;-75
2022/05/24 01:16:33;;;;;;;10.57;9.57;;;;;;;;;;5093716;28;20763;-75
2022/05/24 01:19:00;;;;;;;11.60;10.50;;;;;;;;;;5094806;28;20535;-76
2022/05/24 01:21:26;;;;;;;11.97;9.33;;;;;;;;;;5093983;28;20760;-75
2022/05/24 01:24:10;;;;;;;9.77;8.77;;;;;;;;;;5094361;28;20560;-76
2022/05/24 01:26:50;;;;;;;13.10;10.63;;;;;;;;;;5094756;28;20998;-76
2022/05/24 01:29:16;;;;;;;10.80;9.70;;;;;;;;;;5094795;28;20406;-75
2022/05/24 01:37:13;;;;;;;12.50;10.93;;;;;;;;;;5093694;28;20410;-76
2022/05/24 01:39:40;;;;;;;11.90;10.53;;;;;;;;;;5094498;28;20411;-76
2022/05/24 01:42:06;;;;;;;10.80;9.40;;;;;;;;;;5094677;28;20848;-75
2022/05/24 01:44:36;;;;;;;12.23;10.77;;;;;;;;;;5094137;28;20409;-76
2022/05/24 01:47:03;;;;;;;10.53;9.33;;;;;;;;;;5094255;28;20500;-75
2022/05/24 01:49:39;;;;;;;10.43;9.33;;;;;;;;;;5094055;28;20497;-76
2022/05/24 01:52:13;;;;;;;12.10;9.20;;;;;;;;;;5094232;28;20441;-76
2022/05/24 01:54:40;;;;;;;14.50;10.27;;;;;;;;;;5093681;28;20402;-77
2022/05/24 01:57:10;;;;;;;12.80;9.63;;;;;;;;;;5093644;28;20481;-76
2022/05/24 01:59:38;;;;;;;11.37;10.20;;;;;;;;;;5093879;28;20399;-75
2022/05/24 02:02:04;;;;;;;14.37;9.90;;;;;;;;;;5093947;28;20418;-75
2022/05/24 02:04:32;;;;;;;13.20;10.20;;;;;;;;;;5093526;28;20434;-75
2022/05/24 02:07:09;;;;;;;13.67;9.50;;;;;;;;;;5094179;28;20407;-76
2022/05/24 02:09:36;;;;;;;10.23;8.60;;;;;;;;;;5092775;28;20411;-77
2022/05/24 02:12:06;;;;;;;13.57;10.00;;;;;;;;;;5093746;28;20797;-74
2022/05/24 02:14:33;;;;;;;11.37;8.40;;;;;;;;;;5093178;28;20783;-77
2022/05/24 02:17:02;;;;;;;9.83;7.37;;;;;;;;;;5093714;28;20764;-76
2022/05/24 02:19:29;;;;;;;10.53;7.17;;;;;;;;;;5093471;28;20393;-74
2022/05/24 02:21:57;;;;;;;8.60;6.47;;;;;;;;;;5093479;28;20433;-75
2022/05/24 02:24:24;;;;;;;9.40;6.20;;;;;;;;;;5093306;28;20755;-76
2022/05/24 02:26:51;;;;;;;7.23;5.57;;;;;;;;;;5093696;28;20402;-75
2022/05/24 02:29:18;;;;;;;11.10;6.10;;;;;;;;;;5093540;28;20404;-77
2022/05/24 02:31:45;;;;;;;8.60;5.50;;;;;;;;;;5091751;28;20839;-76
2022/05/24 02:34:11;;;;;;;8.63;5.97;;;;;;;;;;5093091;28;20431;-75
2022/05/24 02:36:37;;;;;;;10.37;6.03;;;;;;;;;;5093593;28;20541;-76
2022/05/24 02:39:04;;;;;;;9.50;5.60;;;;;;;;;;5093345;28;20406;-75
2022/05/24 02:41:31;;;;;;;10.10;5.97;;;;;;;;;;5093320;28;20497;-76
2022/05/24 02:44:01;;;;;;;10.90;5.73;;;;;;;;;;5092967;28;21013;-76
2022/05/24 02:46:28;;;;;;;12.60;6.13;;;;;;;;;;5093245;28;20409;-75
2022/05/24 02:48:54;;;;;;;6.00;5.20;;;;;;;;;;5093263;28;20411;-75
2022/05/24 02:51:20;;;;;;;6.60;4.60;;;;;;;;;;5093050;28;20464;-75
2022/05/24 02:53:46;;;;;;;9.30;5.17;;;;;;;;;;5092590;28;20775;-75
2022/05/24 02:56:12;;;;;;;8.77;4.30;;;;;;;;;;5091879;28;20411;-76
2022/05/24 02:58:38;;;;;;;6.10;4.23;;;;;;;;;;5093036;28;20385;-76
2022/05/24 03:01:10;;;;;;;11.33;4.87;;;;;;;;;;5093437;28;20418;-75
2022/05/24 03:03:36;;;;;;;6.70;5.17;;;;;;;;;;5092532;28;20434;-74
2022/05/24 03:06:02;;;;;;;11.27;4.10;;;;;;;;;;5092899;28;20424;-74
2022/05/24 03:11:13;;;;;;;6.50;4.00;;;;;;;;;;5093159;28;20461;-76
2022/05/24 03:16:23;;;;;;;6.50;4.13;;;;;;;;;;5093281;28;20441;-76
2022/05/24 03:18:49;;;;;;;7.70;5.13;;;;;;;;;;5092927;28;20410;-75
2022/05/24 03:21:15;;;;;;;9.47;4.80;;;;;;;;;;5091566;28;20689;-76
2022/05/24 03:23:42;;;;;;;8.63;4.40;;;;;;;;;;5092374;28;20426;-76
2022/05/24 03:26:08;;;;;;;7.97;4.83;;;;;;;;;;5093032;28;20969;-75
2022/05/24 03:28:34;;;;;;;5.20;3.73;;;;;;;;;;5092869;28;20444;-75
2022/05/24 03:31:03;;;;;;;21.67;5.27;;;;;;;;;;5092592;28;20458;-75
2022/05/24 03:33:29;;;;;;;9.97;4.83;;;;;;;;;;5092576;28;20494;-76
2022/05/24 03:35:55;;;;;;;10.27;4.30;;;;;;;;;;5091161;28;20458;-76
2022/05/24 03:38:21;;;;;;;7.40;4.60;;;;;;;;;;5092736;28;20415;-75
2022/05/24 03:40:47;;;;;;;6.57;4.30;;;;;;;;;;5092717;28;20418;-75
2022/05/24 03:43:14;;;;;;;8.97;4.93;;;;;;;;;;5091770;28;20488;-76
2022/05/24 03:45:40;;;;;;;6.63;4.53;;;;;;;;;;5096643;28;20446;-76
2022/05/24 03:48:06;;;;;;;7.37;4.30;;;;;;;;;;5096584;28;20473;-76
2022/05/24 03:50:32;;;;;;;6.93;4.53;;;;;;;;;;5096548;28;20723;-76
2022/05/24 03:52:58;;;;;;;8.33;5.03;;;;;;;;;;5096463;28;20389;-76
2022/05/24 03:55:24;;;;;;;8.00;5.00;;;;;;;;;;5096503;28;20403;-74
2022/05/24 03:58:00;;;;;;;4.43;3.97;;;;;;;;;;5096381;28;20944;-75
2022/05/24 04:00:26;;;;;;;8.53;4.13;;;;;;;;;;5096460;28;20377;-75
2022/05/24 04:02:52;;;;;;;7.20;4.40;;;;;;;;;;5096159;28;20402;-76
2022/05/24 04:05:18;;;;;;;9.90;4.80;;;;;;;;;;5095018;28;21034;-76
2022/05/24 04:07:44;;;;;;;9.97;4.20;;;;;;;;;;5096476;28;20418;-77
2022/05/24 04:10:12;;;;;;;15.90;5.17;;;;;;;;;;5096123;28;20429;-75
2022/05/24 04:12:38;;;;;;;8.57;4.40;;;;;;;;;;5096415;28;20461;-75
2022/05/24 04:15:04;;;;;;;4.87;3.77;;;;;;;;;;5095706;28;20427;-76
2022/05/24 04:17:30;;;;;;;7.83;3.97;;;;;;;;;;5096033;28;20380;-75
2022/05/24 04:19:56;;;;;;;5.77;3.43;;;;;;;;;;5096001;28;20406;-77
2022/05/24 04:22:22;;;;;;;6.90;3.73;;;;;;;;;;5094745;28;20406;-77
2022/05/24 04:24:48;;;;;;;8.63;4.43;;;;;;;;;;5077385;28;20437;-78
2022/05/24 04:27:14;;;;;;;9.27;4.47;;;;;;;;;;5094722;28;20374;-77
2022/05/24 04:29:41;;;;;;;12.23;4.00;;;;;;;;;;5095759;28;20402;-77
2022/05/24 04:32:08;;;;;;;14.37;4.57;;;;;;;;;;5095386;28;20441;-77
2022/05/24 04:34:34;;;;;;;7.20;3.90;;;;;;;;;;5095123;28;20814;-76
2022/05/24 04:37:00;;;;;;;5.80;3.90;;;;;;;;;;5095830;28;20411;-76
2022/05/24 04:39:26;;;;;;;8.53;4.30;;;;;;;;;;5095771;28;20808;-76
2022/05/24 04:44:37;;;;;;;11.20;6.30;;;;;;;;;;5095216;28;20442;-76
2022/05/24 04:47:09;;;;;;;6.73;3.90;;;;;;;;;;5094216;28;20403;-76
2022/05/24 04:49:38;;;;;;;5.93;4.23;;;;;;;;;;5095397;28;20464;-77
2022/05/24 04:52:06;;;;;;;6.70;5.00;;;;;;;;;;5093953;28;20462;-75
2022/05/24 04:54:32;;;;;;;8.53;5.00;;;;;;;;;;5093210;28;20442;-76
2022/05/24 04:56:58;;;;;;;10.73;5.30;;;;;;;;;;5093833;28;20423;-76
2022/05/24 04:59:24;;;;;;;11.40;4.90;;;;;;;;;;5095278;28;20418;-76
2022/05/24 05:01:53;;;;;;;9.33;5.30;;;;;;;;;;5095085;28;20407;-76
2022/05/24 05:04:19;;;;;;;8.10;5.00;;;;;;;;;;5094588;28;20430;-76
2022/05/24 05:06:46;;;;;;;9.00;5.40;;;;;;;;;;5095175;28;20410;-77
2022/05/24 05:09:12;;;;;;;12.57;5.80;;;;;;;;;;5094854;28;20572;-76
2022/05/24 05:11:38;;;;;;;7.63;4.70;;;;;;;;;;5094883;28;20440;-76
2022/05/24 05:14:04;;;;;;;8.63;5.07;;;;;;;;;;5094605;28;20513;-76
2022/05/24 05:16:31;;;;;;;16.33;4.80;;;;;;;;;;5093554;28;20891;-76
2022/05/24 05:18:57;;;;;;;7.93;4.80;;;;;;;;;;5094865;28;20407;-77
2022/05/24 05:21:23;;;;;;;9.73;4.00;;;;;;;;;;5094867;28;20439;-76
2022/05/24 05:23:49;;;;;;;14.57;3.73;;;;;;;;;;5094230;28;20789;-76
2022/05/24 05:26:15;;;;;;;17.40;3.80;;;;;;;;;;5094985;28;20449;-77
2022/05/24 05:28:42;;;;;;;6.37;3.97;;;;;;;;;;5093532;28;20823;-77
2022/05/24 05:31:21;;;;;;;9.83;3.57;;;;;;;;;;5093158;28;20470;-78
2022/05/24 05:33:47;;;;;;;9.20;3.13;;;;;;;;;;5094395;28;20414;-77
2022/05/24 05:36:14;;;;;;;9.60;3.90;;;;;;;;;;5094743;28;20497;-77
2022/05/24 05:38:45;;;;;;;4.90;3.57;;;;;;;;;;5093362;28;20803;-77
2022/05/24 05:41:11;;;;;;;4.72;3.05;;;;;;;;;;5094549;28;20430;-76
2022/05/24 05:43:37;;;;;;;6.28;2.67;;;;;;;;;;5094119;28;20341;-77
2022/05/24 05:46:04;;;;;;;3.58;2.47;;;;;;;;;;5094380;28;20169;-76
2022/05/24 05:48:30;;;;;;;9.47;2.30;;;;;;;;;;5094269;28;20222;-76
2022/05/24 05:50:56;;;;;;;10.07;2.38;;;;;;;;;;5094009;28;20454;-77
2022/05/24 05:53:23;;;;;;;5.90;2.40;;;;;;;;;;5093953;28;20184;-76
2022/05/24 05:55:49;;;;;;;9.27;2.60;;;;;;;;;;5092753;28;20423;-77
2022/05/24 05:58:15;;;;;;;11.03;2.07;;;;;;;;;;5094121;28;20406;-76
2022/05/24 06:00:42;;;;;;;4.70;2.37;;;;;;;;;;5094210;28;20439;-77
2022/05/24 06:03:08;;;;;;;8.53;2.00;;;;;;;;;;5093461;28;20403;-77
2022/05/24 06:05:34;;;;;;;4.55;1.75;;;;;;;;;;5093598;28;20419;-77
2022/05/24 06:08:01;;;;;;;11.90;2.30;;;;;;;;;;5093827;28;20580;-77
2022/05/24 06:10:28;;;;;;;6.43;1.90;;;;;;;;;;5093496;28;20483;-77
2022/05/24 06:12:56;;;;;;;4.13;1.77;;;;;;;;;;5093340;28;20417;-78
2022/05/24 06:15:24;;;;;;;4.60;2.40;;;;;;;;;;5093668;28;20419;-77
2022/05/24 06:17:50;;;;;;;2.40;1.70;;;;;;;;;;5092753;28;20406;-76
2022/05/24 06:20:17;;;;;;;5.40;2.20;;;;;;;;;;5093939;28;20411;-76
2022/05/24 06:22:43;;;;;;;3.43;2.00;;;;;;;;;;5092373;28;20422;-76
2022/05/24 06:25:10;;;;;;;8.50;2.42;;;;;;;;;;5091884;28;20548;-77
2022/05/24 06:27:36;;;;;;;3.97;1.73;;;;;;;;;;5093632;28;20247;-77
2022/05/24 06:30:03;;;;;;;7.37;2.03;;;;;;;;;;5093579;28;20419;-76
2022/05/24 06:32:30;;;;;;;5.22;2.33;;;;;;;;;;5093225;28;20470;-77
2022/05/24 06:34:56;;;;;;;6.50;2.63;;;;;;;;;;5093122;28;20207;-76
2022/05/24 06:37:22;;;;;;;6.23;2.50;;;;;;;;;;5093193;28;20422;-76
2022/05/24 06:39:48;;;;;;;7.80;2.50;;;;;;;;;;5093258;28;20402;-75
2022/05/24 06:42:15;;;;;;;4.33;1.97;;;;;;;;;;5093448;28;20464;-75
2022/05/24 06:44:41;;;;;;;3.40;2.00;;;;;;;;;;5092800;28;20800;-75
2022/05/24 06:47:07;;;;;;;4.70;1.70;;;;;;;;;;5093070;28;20414;-74
2022/05/24 06:49:33;;;;;;;5.07;2.23;;;;;;;;;;5093107;28;20413;-74
2022/05/24 06:51:59;;;;;;;4.27;1.90;;;;;;;;;;5093163;28;20493;-74
2022/05/24 06:54:26;;;;;;;4.70;2.07;;;;;;;;;;5091396;28;20445;-74
2022/05/24 06:56:52;;;;;;;5.00;2.07;;;;;;;;;;5093078;28;20407;-74
2022/05/24 07:04:47;;;;;;;5.13;1.80;;;;;;;;;;5092939;28;20495;-74
2022/05/24 07:07:13;;;;;;;5.93;1.90;;;;;;;;;;5093142;28;20411;-74
2022/05/24 07:09:40;;;;;;;2.70;1.53;;;;;;;;;;5091636;28;20430;-74
2022/05/24 07:12:06;;;;;;;3.20;1.83;;;;;;;;;;5092657;28;20882;-74
2022/05/24 07:14:35;;;;;;;4.83;1.87;;;;;;;;;;5092575;28;20483;-74
2022/05/24 07:17:01;;;;;;;3.10;2.00;;;;;;;;;;5092740;28;20444;-73
2022/05/24 07:19:28;;;;;;;4.87;1.60;;;;;;;;;;5092100;28;20419;-75
2022/05/24 07:21:54;;;;;;;2.90;2.20;;;;;;;;;;5092708;28;20423;-74
2022/05/24 07:24:20;;;;;;;4.80;2.00;;;;;;;;;;5092288;28;20496;-74
2022/05/24 07:26:46;;;;;;;3.87;2.23;;;;;;;;;;5091359;28;20521;-74
2022/05/24 07:29:13;;;;;;;4.87;1.90;;;;;;;;;;5092570;28;20403;-74
2022/05/24 07:31:39;;;;;;;5.23;2.03;;;;;;;;;;5092334;28;20830;-75
2022/05/24 07:34:05;;;;;;;5.33;1.90;;;;;;;;;;5092138;28;20556;-74
2022/05/24 07:36:31;;;;;;;2.70;1.87;;;;;;;;;;5092601;28;20868;-75
2022/05/24 07:38:58;;;;;;;3.03;1.60;;;;;;;;;;5092580;28;20405;-75
2022/05/24 07:46:53;;;;;;;2.10;1.60;;;;;;;;;;5092860;28;20426;-75
2022/05/24 07:49:19;;;;;;;1.90;1.80;;;;;;;;;;5091220;28;20790;-76
2022/05/24 07:51:45;;;;;;;3.70;2.10;;;;;;;;;;5092234;28;20465;-75
2022/05/24 07:54:11;;;;;;;1.53;1.43;;;;;;;;;;5091996;28;20435;-75
2022/05/24 07:56:37;;;;;;;2.07;1.40;;;;;;;;;;5092422;28;20464;-74
2022/05/24 07:59:03;;;;;;;6.10;1.60;;;;;;;;;;5092205;28;20860;-75
2022/05/24 08:01:29;;;;;;;1.70;1.30;;;;;;;;;;5092365;28;20827;-75
2022/05/24 08:03:55;;;;;;;2.10;1.37;;;;;;;;;;5088638;28;20475;-76
2022/05/24 08:06:21;;;;;;;5.23;1.37;;;;;;;;;;5078408;28;20398;-76
2022/05/24 08:08:47;;;;;;;3.83;1.73;;;;;;;;;;5072263;28;20422;-75
2022/05/24 08:11:13;;;;;;;1.80;1.37;;;;;;;;;;5080121;28;20462;-75
2022/05/24 08:13:39;;;;;;;4.23;1.40;;;;;;;;;;5080510;28;20414;-76
2022/05/24 08:16:05;;;;;;;4.23;1.63;;;;;;;;;;5092263;28;20877;-75
2022/05/24 08:18:32;;;;;;;5.53;1.40;;;;;;;;;;5083222;28;20441;-75
2022/05/24 08:20:58;;;;;;;3.70;1.20;;;;;;;;;;5076602;28;20751;-75
2022/05/24 08:23:24;;;;;;;3.83;1.80;;;;;;;;;;5071599;28;20446;-76
2022/05/24 08:25:51;;;;;;;9.83;1.80;;;;;;;;;;5083741;28;20434;-76
2022/05/24 08:28:17;;;;;;;2.23;1.23;;;;;;;;;;5092461;28;20435;-76
2022/05/24 08:30:43;;;;;;;3.60;1.20;;;;;;;;;;5095345;28;20410;-76
2022/05/24 08:33:13;;;;;;;4.43;1.23;;;;;;;;;;5095339;28;20430;-75
2022/05/24 08:35:39;;;;;;;2.30;1.20;;;;;;;;;;5095783;28;20429;-76
2022/05/24 08:38:06;;;;;;;3.87;1.13;;;;;;;;;;5094321;28;20415;-75
2022/05/24 08:40:34;;;;;;;6.40;1.10;;;;;;;;;;5095721;28;20461;-76
2022/05/24 08:43:06;;;;;;;1.10;1.00;;;;;;;;;;5095281;28;20456;-77
2022/05/24 08:48:31;;;;;;;1.87;0.80;;;;;;;;;;5094816;28;20846;-77
2022/05/24 08:51:15;;;;;;;3.00;0.70;;;;;;;;;;5095347;28;21099;-76
2022/05/24 08:53:45;;;;;;;8.07;1.00;;;;;;;;;;5095008;28;20397;-76
2022/05/24 08:56:15;;;;;;;5.50;0.90;;;;;;;;;;5095183;28;20891;-76
2022/05/24 08:58:43;;;;;;;2.13;0.80;;;;;;;;;;5095133;28;20809;-76
2022/05/24 09:01:21;;;;;;;4.90;1.03;;;;;;;;;;5095225;28;20389;-77
2022/05/24 09:03:47;;;;;;;1.53;1.10;;;;;;;;;;5094884;28;20763;-75
2022/05/24 09:06:32;;;;;;;3.83;1.00;;;;;;;;;;5093818;28;20418;-77
2022/05/24 09:09:12;;;;;;;1.10;0.93;;;;;;;;;;5093866;28;20399;-77
2022/05/24 09:11:46;;;;;;;19.57;14.47;;;;;;;;;;5093974;28;20435;-77
2022/05/24 09:14:19;;;;;;;4.07;1.40;;;;;;;;;;5094759;28;20389;-78
2022/05/24 09:17:04;;;;;;;2.13;1.00;;;;;;;;;;5095302;28;20397;-75
2022/05/24 09:19:35;;;;;;;2.13;1.00;;;;;;;;;;5094940;28;20369;-77
2022/05/24 09:22:02;;;;;;;1.13;0.70;;;;;;;;;;5093540;28;20486;-76
2022/05/24 09:24:41;;;;;;;1.40;1.10;;;;;;;;;;5094417;28;20471;-75
2022/05/24 09:27:18;;;;;;;1.00;0.87;;;;;;;;;;5094947;28;20380;-75
2022/05/24 09:29:59;;;;;;;0.90;0.80;;;;;;;;;;5094794;28;20459;-77
2022/05/24 09:32:34;;;;;;;4.20;1.20;;;;;;;;;;5094512;28;20436;-77
2022/05/24 09:35:02;;;;;;;3.13;1.23;;;;;;;;;;5094285;28;20934;-77
2022/05/24 09:37:28;;;;;;;3.93;1.17;;;;;;;;;;5094934;28;20485;-78
2022/05/24 09:39:59;;;;;;;2.70;1.40;;;;;;;;;;5094817;28;20423;-77
2022/05/24 09:42:29;;;;;;;5.70;1.10;;;;;;;;;;5092331;28;20414;-78
2022/05/24 09:45:10;;;;;;;1.30;0.90;;;;;;;;;;5094416;28;20418;-76
2022/05/24 09:47:38;;;;;;;3.60;1.57;;;;;;;;;;5094489;28;20410;-78
2022/05/24 09:50:23;;;;;;;1.77;0.90;;;;;;;;;;5094451;28;20419;-75
2022/05/24 09:53:10;;;;;;;3.93;1.40;;;;;;;;;;5094122;28;20458;-78
2022/05/24 09:55:45;;;;;;;1.33;0.93;;;;;;;;;;5094262;28;20513;-77
2022/05/24 09:58:20;;;;;;;1.63;1.03;;;;;;;;;;5094221;28;20783;-77
2022/05/24 10:00:53;;;;;;;1.57;0.97;;;;;;;;;;5094143;28;20939;-79
2022/05/24 10:03:23;;;;;;;1.67;1.20;;;;;;;;;;5092550;28;20438;-77
2022/05/24 10:06:08;;;;;;;1.00;0.80;;;;;;;;;;5094180;28;20465;-76
2022/05/24 10:08:35;;;;;;;1.70;0.93;;;;;;;;;;5094020;28;20391;-79
2022/05/24 10:11:02;;;;;;;3.00;0.90;;;;;;;;;;5094048;28;20458;-78
2022/05/24 10:13:38;;;;;;;1.00;0.80;;;;;;;;;;5093924;28;20418;-78
2022/05/24 10:16:04;;;;;;;1.77;1.13;;;;;;;;;;5074069;28;20407;-77
2022/05/24 10:19:05;;;;;;;1.87;1.30;;;;;;;;;;5073857;28;20378;-76
2022/05/24 10:21:44;;;;;;;2.27;0.93;;;;;;;;;;5031973;28;20498;-79
2022/05/24 10:24:19;;;;;;;1.93;1.00;;;;;;;;;;5068343;28;20784;-78
2022/05/24 10:26:56;;;;;;;1.80;0.83;;;;;;;;;;5073885;28;20760;-75
2022/05/24 10:29:34;;;;;;;1.70;0.90;;;;;;;;;;5073709;28;20866;-77
2022/05/24 10:38:17;;;;;;;2.37;1.30;;;;;;;;;;5073452;28;20473;-77
2022/05/24 10:40:43;;;;;;;1.87;0.90;;;;;;;;;;5073632;28;20377;-78
2022/05/24 10:43:18;;;;;;;2.20;1.00;;;;;;;;;;5072852;28;20426;-78
2022/05/24 10:45:50;;;;;;;2.10;1.20;;;;;;;;;;5073087;28;20480;-76
2022/05/24 10:48:22;;;;;;;2.23;0.97;;;;;;;;;;5073179;28;20816;-77
2022/05/24 10:50:52;;;;;;;5.03;1.00;;;;;;;;;;5073029;28;20439;-79
2022/05/24 10:53:21;;;;;;;4.10;1.37;;;;;;;;;;5072562;28;20416;-77
2022/05/24 10:55:50;;;;;;;1.53;1.10;;;;;;;;;;5075237;28;20431;-77
2022/05/24 10:58:16;;;;;;;2.60;1.00;;;;;;;;;;5084622;28;20400;-76
2022/05/24 11:00:51;;;;;;;1.20;0.67;;;;;;;;;;5082407;28;20407;-75
2022/05/24 11:03:18;;;;;;;4.70;0.90;;;;;;;;;;5090188;28;20497;-79
2022/05/24 11:05:46;;;;;;;2.20;1.10;;;;;;;;;;5093076;28;20418;-78
2022/05/24 11:08:27;;;;;;;4.10;1.10;;;;;;;;;;5093154;28;20530;-76
2022/05/24 11:10:53;;;;;;;3.87;1.00;;;;;;;;;;5093077;28;20406;-76
2022/05/24 11:13:28;;;;;;;2.20;0.77;;;;;;;;;;5092773;28;20385;-77
2022/05/24 11:15:56;;;;;;;2.60;1.00;;;;;;;;;;5093108;28;20844;-76
2022/05/24 11:18:23;;;;;;;4.60;1.40;;;;;;;;;;5093176;28;20390;-78
2022/05/24 11:21:02;;;;;;;1.83;1.10;;;;;;;;;;5091953;28;20413;-75
2022/05/24 11:23:36;;;;;;;1.93;1.20;;;;;;;;;;5092613;28;20381;-77
2022/05/24 11:26:02;;;;;;;3.23;1.00;;;;;;;;;;5092995;28;20913;-77
2022/05/24 11:28:30;;;;;;;2.13;1.07;;;;;;;;;;5092873;28;20495;-76
2022/05/24 11:31:16;;;;;;;3.17;1.03;;;;;;;;;;5092562;28;20462;-75
2022/05/24 11:33:43;;;;;;;2.50;1.17;;;;;;;;;;5092084;28;20397;-77
2022/05/24 11:36:35;;;;;;;1.13;0.80;;;;;;;;;;5092843;28;20442;-78
2022/05/24 11:39:07;;;;;;;1.20;0.87;;;;;;;;;;5089693;28;20394;-76
2022/05/24 11:41:33;;;;;;;2.20;1.10;;;;;;;;;;5091554;28;20468;-78
2022/05/24 11:44:00;;;;;;;2.17;0.90;;;;;;;;;;5092368;28;20766;-75
2022/05/24 11:46:29;;;;;;;4.47;1.47;;;;;;;;;;5092775;28;20814;-76
2022/05/24 11:48:56;;;;;;;4.47;1.07;;;;;;;;;;5092948;28;20413;-74
2022/05/24 11:51:39;;;;;;;2.20;0.80;;;;;;;;;;5092528;28;20779;-74
2022/05/24 11:54:25;;;;;;;2.77;0.80;;;;;;;;;;5092335;28;20397;-76
2022/05/24 11:57:06;;;;;;;1.40;0.90;;;;;;;;;;5051682;28;20820;-77
2022/05/24 11:59:38;;;;;;;2.70;1.30;;;;;;;;;;5092539;28;20409;-76
2022/05/24 12:02:24;;;;;;;4.10;1.20;;;;;;;;;;5092610;28;20406;-76
2022/05/24 12:08:07;;;;;;;1.67;0.70;;;;;;;;;;5096415;28;20411;-75
2022/05/24 12:10:51;;;;;;;1.37;0.73;;;;;;;;;;5093334;28;20416;-76
2022/05/24 12:13:23;;;;;;;1.10;0.60;;;;;;;;;;5081079;28;20423;-79
2022/05/24 12:15:57;;;;;;;1.17;0.77;;;;;;;;;;5076186;28;20402;-77
2022/05/24 12:18:34;;;;;;;1.90;0.67;;;;;;;;;;5076283;28;20840;-76
2022/05/24 12:21:00;;;;;;;3.40;0.90;;;;;;;;;;5076051;28;20402;-75
2022/05/24 12:23:29;;;;;;;1.73;1.10;;;;;;;;;;5075769;28;20419;-76
2022/05/24 12:25:58;;;;;;;3.30;1.17;;;;;;;;;;5075865;28;20432;-78
2022/05/24 12:28:34;;;;;;;3.20;1.40;;;;;;;;;;5076005;28;20400;-78
2022/05/24 12:31:01;;;;;;;1.13;0.80;;;;;;;;;;5075738;28;20450;-77
2022/05/24 12:33:33;;;;;;;1.67;0.80;;;;;;;;;;5075465;28;20404;-75
2022/05/24 12:36:08;;;;;;;2.20;1.00;;;;;;;;;;5074530;28;20498;-77
2022/05/24 12:38:36;;;;;;;2.20;0.90;;;;;;;;;;5075898;28;20548;-76
2022/05/24 12:41:14;;;;;;;1.97;0.90;;;;;;;;;;5075776;28;20418;-76
2022/05/24 12:43:59;;;;;;;0.83;0.63;;;;;;;;;;5073890;28;20423;-77
2022/05/24 12:46:29;;;;;;;2.13;0.90;;;;;;;;;;5075607;28;20411;-76
2022/05/24 12:49:00;;;;;;;0.90;0.70;;;;;;;;;;5075631;28;20412;-76
2022/05/24 12:51:26;;;;;;;0.80;0.70;;;;;;;;;;5075561;28;20544;-77
2022/05/24 12:53:52;;;;;;;1.90;0.80;;;;;;;;;;5074954;28;20434;-76
2022/05/24 12:56:20;;;;;;;2.17;0.90;;;;;;;;;;5075547;28;20404;-77
2022/05/24 12:58:49;;;;;;;3.97;1.10;;;;;;;;;;5078229;28;20404;-76
2022/05/24 13:01:23;;;;;;;2.50;0.90;;;;;;;;;;5080706;28;20411;-78
2022/05/24 13:03:49;;;;;;;2.00;0.90;;;;;;;;;;5074954;28;20445;-79
2022/05/24 13:06:29;;;;;;;1.17;0.80;;;;;;;;;;5075272;28;20772;-78
2022/05/24 13:09:13;;;;;;;8.03;1.43;;;;;;;;;;5075395;28;20426;-76
2022/05/24 13:11:39;;;;;;;1.40;0.90;;;;;;;;;;5080622;28;20429;-77
2022/05/24 13:14:06;;;;;;;1.80;1.30;;;;;;;;;;5094860;28;20423;-76
2022/05/24 13:16:34;;;;;;;2.20;1.10;;;;;;;;;;5095228;28;20407;-79
2022/05/24 13:19:02;;;;;;;4.73;1.10;;;;;;;;;;5095428;28;20524;-77
2022/05/24 13:21:31;;;;;;;5.60;1.73;;;;;;;;;;5095259;28;20396;-77
2022/05/24 13:24:29;;;;;;;1.50;1.10;;;;;;;;;;5094661;28;20426;-76
2022/05/24 13:26:59;;;;;;;2.90;1.77;;;;;;;;;;5079945;28;20781;-79
2022/05/24 13:29:29;;;;;;;2.30;1.20;;;;;;;;;;5095528;28;20501;-77
2022/05/24 13:34:39;;;;;;;4.50;1.50;;;;;;;;;;5094983;28;20421;-78
2022/05/24 13:37:07;;;;;;;5.30;1.40;;;;;;;;;;5093894;28;20422;-76
2022/05/24 13:39:39;;;;;;;2.23;1.13;;;;;;;;;;5093885;28;20414;-77
2022/05/24 13:42:09;;;;;;;3.93;1.20;;;;;;;;;;5095162;28;20438;-76
2022/05/24 13:44:42;;;;;;;2.60;1.03;;;;;;;;;;5094451;28;20411;-78
2022/05/24 13:47:28;;;;;;;4.00;1.50;;;;;;;;;;5095200;28;20486;-77
2022/05/24 13:49:55;;;;;;;2.50;1.10;;;;;;;;;;5080957;28;20419;-77
2022/05/24 13:52:23;;;;;;;2.40;1.20;;;;;;;;;;5094635;28;20437;-75
2022/05/24 13:54:51;;;;;;;2.07;1.20;;;;;;;;;;5094476;28;20431;-76
2022/05/24 13:57:27;;;;;;;3.53;1.00;;;;;;;;;;5094744;28;20407;-78
2022/05/24 14:00:00;;;;;;;3.57;0.90;;;;;;;;;;5094497;28;20377;-76
2022/05/24 14:02:27;;;;;;;3.90;1.63;;;;;;;;;;5094193;28;20413;-75
2022/05/24 14:04:54;;;;;;;2.57;1.10;;;;;;;;;;5093952;28;20442;-75
2022/05/24 14:07:20;;;;;;;2.70;0.90;;;;;;;;;;5094610;28;20396;-77
2022/05/24 14:09:46;;;;;;;2.17;0.90;;;;;;;;;;5094218;28;20718;-78
2022/05/24 14:12:13;;;;;;;2.30;0.90;;;;;;;;;;5094226;28;20425;-76
2022/05/24 14:14:46;;;;;;;1.40;0.90;;;;;;;;;;5093676;28;20427;-76
2022/05/24 14:17:12;;;;;;;2.13;1.10;;;;;;;;;;5094515;28;20392;-76
2022/05/24 14:19:38;;;;;;;2.37;1.10;;;;;;;;;;5094434;28;20399;-74
2022/05/24 14:22:04;;;;;;;4.57;1.00;;;;;;;;;;5094340;28;20411;-78
2022/05/24 14:24:30;;;;;;;1.77;0.90;;;;;;;;;;5093856;28;20764;-78
2022/05/24 14:26:59;;;;;;;1.00;0.80;;;;;;;;;;5093565;28;20385;-76
2022/05/24 14:29:26;;;;;;;1.70;0.83;;;;;;;;;;5093889;28;20899;-76
2022/05/24 14:31:53;;;;;;;4.27;1.60;;;;;;;;;;5092408;28;20992;-75
2022/05/24 14:34:19;;;;;;;1.70;1.07;;;;;;;;;;5093504;28;20401;-75
2022/05/24 14:36:45;;;;;;;1.23;1.10;;;;;;;;;;5093979;28;20841;-74
2022/05/24 14:39:12;;;;;;;2.40;1.40;;;;;;;;;;5094086;28;20446;-76
2022/05/24 14:41:38;;;;;;;1.60;1.03;;;;;;;;;;5094024;28;20410;-77
2022/05/24 14:44:06;;;;;;;4.00;1.50;;;;;;;;;;5093446;28;20766;-78
2022/05/24 14:46:33;;;;;;;4.13;1.30;;;;;;;;;;5093728;28;20385;-76
2022/05/24 14:48:59;;;;;;;1.70;1.10;;;;;;;;;;5093686;28;20410;-77
2022/05/24 14:51:30;;;;;;;5.70;1.10;;;;;;;;;;5093727;28;20454;-77
2022/05/24 14:53:59;;;;;;;1.30;1.00;;;;;;;;;;5093292;28;20881;-75
2022/05/24 14:56:25;;;;;;;1.30;0.90;;;;;;;;;;5093571;28;20381;-76
2022/05/24 14:58:51;;;;;;;2.40;0.93;;;;;;;;;;5093368;28;20473;-77
2022/05/24 15:01:16;;;;;;;3.07;1.47;;;;;;;;;;5093701;28;20481;-75
2022/05/24 15:03:43;;;;;;;1.47;1.10;;;;;;;;;;5091850;28;20394;-76
2022/05/24 15:06:08;;;;;;;1.50;1.03;;;;;;;;;;5079627;28;20416;-77
2022/05/24 15:16:49;;;;;;;1.00;0.80;;;;;;;;;;5073280;28;20460;-79
2022/05/24 15:19:19;;;;;;;4.00;1.27;;;;;;;;;;5072878;28;20382;-77
2022/05/24 15:21:47;;;;;;;1.40;0.97;;;;;;;;;;5072912;28;20409;-77
2022/05/24 15:24:16;;;;;;;1.03;0.73;;;;;;;;;;5072341;28;20832;-77
2022/05/24 15:26:45;;;;;;;2.40;1.03;;;;;;;;;;5073271;28;20404;-76
2022/05/24 15:29:11;;;;;;;3.10;1.13;;;;;;;;;;5072765;28;20404;-76
2022/05/24 15:31:37;;;;;;;1.23;1.10;;;;;;;;;;5072990;28;20520;-76
2022/05/24 15:34:03;;;;;;;3.17;1.30;;;;;;;;;;5072795;28;20497;-75
2022/05/24 15:36:30;;;;;;;4.33;1.20;;;;;;;;;;5073171;28;20379;-76
2022/05/24 15:38:56;;;;;;;1.03;0.90;;;;;;;;;;5073323;28;20403;-77